sensor_id;sensor_type;location;lat;lon;timestamp;P1;durP1;ratioP1;P2;durP2;ratioP2
75990;SDS011;64673;52.276;10.560;2022-11-21T00:00:00;16.23;;;6.97;;
75990;SDS011;64673;52.276;10.560;2022-11-21T00:02:25;14.73;;;7.05;;
75990;SDS011;64673;52.276;10.560;2022-11-21T00:04:51;13.73;;;6.57;;
75990;SDS011;64673;52.276;10.560;2022-11-21T00:07:16;13.37;;;6.43;;
75990;SDS011;64673;52.276;10.560;2022-11-21T00:09:42;13.20;;;6.53;;
75990;SDS011;64673;52.276;10.560;2022-11-21T00:12:07;14.93;;;6.85;;
75990;SDS011;64673;52.276;10.560;2022-11-21T00:14:32;16.27;;;7.07;;
75990;SDS011;64673;52.276;10.560;2022-11-21T00:16:58;14.75;;;6.07;;
75990;SDS011;64673;52.276;10.560;2022-11-21T00:19:23;12.90;;;6.63;;
75990;SDS011;64673;52.276;10.560;2022-11-21T00:21:49;16.75;;;6.68;;
75990;SDS011;64673;52.276;10.560;2022-11-21T00:24:14;14.82;;;6.45;;
75990;SDS011;64673;52.276;10.560;2022-11-21T00:26:39;16.02;;;6.63;;
75990;SDS011;64673;52.276;10.560;2022-11-21T00:29:04;15.45;;;6.63;;
75990;SDS011;64673;52.276;10.560;2022-11-21T00:31:30;13.45;;;6.57;;
75990;SDS011;64673;52.276;10.560;2022-11-21T00:33:55;15.93;;;7.15;;
75990;SDS011;64673;52.276;10.560;2022-11-21T00:36:21;11.85;;;6.50;;
75990;SDS011;64673;52.276;10.560;2022-11-21T00:38:46;15.68;;;6.72;;
75990;SDS011;64673;52.276;10.560;2022-11-21T00:41:11;15.38;;;7.10;;
75990;SDS011;64673;52.276;10.560;2022-11-21T00:43:37;14.30;;;6.20;;
75990;SDS011;64673;52.276;10.560;2022-11-21T00:46:02;16.33;;;7.07;;
75990;SDS011;64673;52.276;10.560;2022-11-21T00:48:28;18.35;;;8.00;;
75990;SDS011;64673;52.276;10.560;2022-11-21T00:50:54;16.17;;;7.35;;
75990;SDS011;64673;52.276;10.560;2022-11-21T00:53:19;18.70;;;8.05;;
75990;SDS011;64673;52.276;10.560;2022-11-21T00:55:45;17.83;;;8.27;;
75990;SDS011;64673;52.276;10.560;2022-11-21T00:58:10;16.50;;;7.93;;
75990;SDS011;64673;52.276;10.560;2022-11-21T01:00:35;17.88;;;7.65;;
75990;SDS011;64673;52.276;10.560;2022-11-21T01:03:01;16.27;;;8.15;;
75990;SDS011;64673;52.276;10.560;2022-11-21T01:05:26;18.13;;;7.65;;
75990;SDS011;64673;52.276;10.560;2022-11-21T01:07:51;17.67;;;7.88;;
75990;SDS011;64673;52.276;10.560;2022-11-21T01:10:17;19.97;;;8.97;;
75990;SDS011;64673;52.276;10.560;2022-11-21T01:12:42;15.55;;;7.25;;
75990;SDS011;64673;52.276;10.560;2022-11-21T01:15:08;15.63;;;7.03;;
75990;SDS011;64673;52.276;10.560;2022-11-21T01:17:34;18.17;;;8.18;;
75990;SDS011;64673;52.276;10.560;2022-11-21T01:19:59;14.57;;;6.90;;
75990;SDS011;64673;52.276;10.560;2022-11-21T01:22:24;17.05;;;7.45;;
75990;SDS011;64673;52.276;10.560;2022-11-21T01:24:50;18.85;;;7.60;;
75990;SDS011;64673;52.276;10.560;2022-11-21T01:27:15;17.25;;;7.75;;
75990;SDS011;64673;52.276;10.560;2022-11-21T01:29:40;20.10;;;7.75;;
75990;SDS011;64673;52.276;10.560;2022-11-21T01:32:06;17.45;;;7.47;;
75990;SDS011;64673;52.276;10.560;2022-11-21T01:34:32;16.27;;;7.97;;
75990;SDS011;64673;52.276;10.560;2022-11-21T01:36:57;15.15;;;7.05;;
75990;SDS011;64673;52.276;10.560;2022-11-21T01:39:22;17.33;;;8.00;;
75990;SDS011;64673;52.276;10.560;2022-11-21T01:41:48;15.93;;;7.18;;
75990;SDS011;64673;52.276;10.560;2022-11-21T01:44:17;16.42;;;7.43;;
75990;SDS011;64673;52.276;10.560;2022-11-21T01:46:48;19.73;;;8.27;;
75990;SDS011;64673;52.276;10.560;2022-11-21T01:49:22;22.10;;;9.82;;
75990;SDS011;64673;52.276;10.560;2022-11-21T01:54:46;16.63;;;6.50;;
75990;SDS011;64673;52.276;10.560;2022-11-21T01:59:50;17.83;;;7.40;;
75990;SDS011;64673;52.276;10.560;2022-11-21T02:02:32;15.93;;;7.22;;
75990;SDS011;64673;52.276;10.560;2022-11-21T02:05:00;19.20;;;7.72;;
75990;SDS011;64673;52.276;10.560;2022-11-21T02:07:29;14.93;;;7.28;;
75990;SDS011;64673;52.276;10.560;2022-11-21T02:09:59;16.67;;;7.35;;
75990;SDS011;64673;52.276;10.560;2022-11-21T02:14:57;15.75;;;6.50;;
75990;SDS011;64673;52.276;10.560;2022-11-21T02:17:24;13.90;;;6.55;;
75990;SDS011;64673;52.276;10.560;2022-11-21T02:19:55;14.13;;;7.45;;
75990;SDS011;64673;52.276;10.560;2022-11-21T02:27:24;17.48;;;7.35;;
75990;SDS011;64673;52.276;10.560;2022-11-21T02:29:49;16.10;;;7.57;;
75990;SDS011;64673;52.276;10.560;2022-11-21T02:32:27;16.13;;;7.55;;
75990;SDS011;64673;52.276;10.560;2022-11-21T02:35:00;14.68;;;7.40;;
75990;SDS011;64673;52.276;10.560;2022-11-21T02:37:26;17.08;;;7.40;;
75990;SDS011;64673;52.276;10.560;2022-11-21T02:39:51;16.88;;;6.97;;
75990;SDS011;64673;52.276;10.560;2022-11-21T02:42:25;14.63;;;6.93;;
75990;SDS011;64673;52.276;10.560;2022-11-21T02:47:46;13.60;;;7.10;;
75990;SDS011;64673;52.276;10.560;2022-11-21T02:50:22;15.40;;;6.90;;
75990;SDS011;64673;52.276;10.560;2022-11-21T02:52:51;14.20;;;7.05;;
75990;SDS011;64673;52.276;10.560;2022-11-21T02:55:17;15.00;;;6.80;;
75990;SDS011;64673;52.276;10.560;2022-11-21T02:57:42;17.38;;;7.75;;
75990;SDS011;64673;52.276;10.560;2022-11-21T03:00:08;17.27;;;6.75;;
75990;SDS011;64673;52.276;10.560;2022-11-21T03:02:35;13.00;;;6.38;;
75990;SDS011;64673;52.276;10.560;2022-11-21T03:05:02;17.15;;;7.65;;
75990;SDS011;64673;52.276;10.560;2022-11-21T03:07:31;14.98;;;6.45;;
75990;SDS011;64673;52.276;10.560;2022-11-21T03:09:56;16.52;;;8.05;;
75990;SDS011;64673;52.276;10.560;2022-11-21T03:12:22;19.40;;;8.30;;
75990;SDS011;64673;52.276;10.560;2022-11-21T03:14:47;20.65;;;8.98;;
75990;SDS011;64673;52.276;10.560;2022-11-21T03:17:12;19.30;;;7.57;;
75990;SDS011;64673;52.276;10.560;2022-11-21T03:19:38;23.27;;;9.13;;
75990;SDS011;64673;52.276;10.560;2022-11-21T03:22:03;22.65;;;8.68;;
75990;SDS011;64673;52.276;10.560;2022-11-21T03:24:28;22.23;;;8.43;;
75990;SDS011;64673;52.276;10.560;2022-11-21T03:26:54;23.42;;;9.55;;
75990;SDS011;64673;52.276;10.560;2022-11-21T03:29:19;24.70;;;9.50;;
75990;SDS011;64673;52.276;10.560;2022-11-21T03:31:44;20.20;;;8.57;;
75990;SDS011;64673;52.276;10.560;2022-11-21T03:34:10;21.30;;;8.73;;
75990;SDS011;64673;52.276;10.560;2022-11-21T03:36:35;20.77;;;8.88;;
75990;SDS011;64673;52.276;10.560;2022-11-21T03:39:01;18.10;;;7.78;;
75990;SDS011;64673;52.276;10.560;2022-11-21T03:41:26;20.42;;;8.60;;
75990;SDS011;64673;52.276;10.560;2022-11-21T03:43:56;18.77;;;8.40;;
75990;SDS011;64673;52.276;10.560;2022-11-21T03:46:24;19.27;;;8.23;;
75990;SDS011;64673;52.276;10.560;2022-11-21T03:48:50;18.98;;;8.32;;
75990;SDS011;64673;52.276;10.560;2022-11-21T03:51:15;23.10;;;8.68;;
75990;SDS011;64673;52.276;10.560;2022-11-21T03:53:41;18.45;;;7.90;;
75990;SDS011;64673;52.276;10.560;2022-11-21T03:56:06;18.58;;;8.07;;
75990;SDS011;64673;52.276;10.560;2022-11-21T03:58:32;21.25;;;8.85;;
75990;SDS011;64673;52.276;10.560;2022-11-21T04:00:57;20.88;;;8.43;;
75990;SDS011;64673;52.276;10.560;2022-11-21T04:03:22;20.65;;;9.00;;
75990;SDS011;64673;52.276;10.560;2022-11-21T04:05:48;20.40;;;8.90;;
75990;SDS011;64673;52.276;10.560;2022-11-21T04:08:13;21.42;;;8.98;;
75990;SDS011;64673;52.276;10.560;2022-11-21T04:10:38;19.08;;;8.38;;
75990;SDS011;64673;52.276;10.560;2022-11-21T04:13:04;22.63;;;8.52;;
75990;SDS011;64673;52.276;10.560;2022-11-21T04:15:29;23.65;;;9.93;;
75990;SDS011;64673;52.276;10.560;2022-11-21T04:17:54;19.25;;;9.40;;
75990;SDS011;64673;52.276;10.560;2022-11-21T04:20:19;24.10;;;9.73;;
75990;SDS011;64673;52.276;10.560;2022-11-21T04:22:45;27.42;;;10.98;;
75990;SDS011;64673;52.276;10.560;2022-11-21T04:25:10;25.80;;;11.00;;
75990;SDS011;64673;52.276;10.560;2022-11-21T04:27:37;23.80;;;10.27;;
75990;SDS011;64673;52.276;10.560;2022-11-21T04:30:03;23.38;;;10.90;;
75990;SDS011;64673;52.276;10.560;2022-11-21T04:32:29;25.75;;;9.77;;
75990;SDS011;64673;52.276;10.560;2022-11-21T04:34:54;20.70;;;9.57;;
75990;SDS011;64673;52.276;10.560;2022-11-21T04:37:19;27.23;;;10.23;;
75990;SDS011;64673;52.276;10.560;2022-11-21T04:39:45;20.92;;;9.60;;
75990;SDS011;64673;52.276;10.560;2022-11-21T04:42:10;22.85;;;10.23;;
75990;SDS011;64673;52.276;10.560;2022-11-21T04:44:35;23.10;;;9.77;;
75990;SDS011;64673;52.276;10.560;2022-11-21T04:47:00;24.15;;;10.38;;
75990;SDS011;64673;52.276;10.560;2022-11-21T04:49:26;24.60;;;10.77;;
75990;SDS011;64673;52.276;10.560;2022-11-21T04:51:51;23.10;;;10.60;;
75990;SDS011;64673;52.276;10.560;2022-11-21T04:54:16;23.15;;;10.20;;
75990;SDS011;64673;52.276;10.560;2022-11-21T04:56:42;22.65;;;9.70;;
75990;SDS011;64673;52.276;10.560;2022-11-21T04:59:07;22.02;;;9.55;;
75990;SDS011;64673;52.276;10.560;2022-11-21T05:01:36;22.10;;;9.98;;
75990;SDS011;64673;52.276;10.560;2022-11-21T05:04:01;23.10;;;10.65;;
75990;SDS011;64673;52.276;10.560;2022-11-21T05:06:27;23.17;;;10.02;;
75990;SDS011;64673;52.276;10.560;2022-11-21T05:08:52;21.92;;;9.82;;
75990;SDS011;64673;52.276;10.560;2022-11-21T05:11:17;23.10;;;9.67;;
75990;SDS011;64673;52.276;10.560;2022-11-21T05:14:01;23.50;;;10.15;;
75990;SDS011;64673;52.276;10.560;2022-11-21T05:16:26;23.42;;;10.20;;
75990;SDS011;64673;52.276;10.560;2022-11-21T05:18:51;23.48;;;10.45;;
75990;SDS011;64673;52.276;10.560;2022-11-21T05:21:17;19.77;;;9.40;;
75990;SDS011;64673;52.276;10.560;2022-11-21T05:23:42;22.83;;;9.02;;
75990;SDS011;64673;52.276;10.560;2022-11-21T05:26:07;22.10;;;9.43;;
75990;SDS011;64673;52.276;10.560;2022-11-21T05:28:33;30.77;;;11.15;;
75990;SDS011;64673;52.276;10.560;2022-11-21T05:30:58;27.48;;;11.57;;
75990;SDS011;64673;52.276;10.560;2022-11-21T05:33:23;30.67;;;11.55;;
75990;SDS011;64673;52.276;10.560;2022-11-21T05:35:49;29.40;;;12.63;;
75990;SDS011;64673;52.276;10.560;2022-11-21T05:38:14;31.15;;;12.50;;
75990;SDS011;64673;52.276;10.560;2022-11-21T05:40:39;28.00;;;11.68;;
75990;SDS011;64673;52.276;10.560;2022-11-21T05:43:05;23.45;;;10.27;;
75990;SDS011;64673;52.276;10.560;2022-11-21T05:45:49;21.70;;;9.73;;
75990;SDS011;64673;52.276;10.560;2022-11-21T05:48:14;23.27;;;10.55;;
75990;SDS011;64673;52.276;10.560;2022-11-21T05:50:40;23.20;;;10.02;;
75990;SDS011;64673;52.276;10.560;2022-11-21T05:53:05;23.23;;;9.40;;
75990;SDS011;64673;52.276;10.560;2022-11-21T05:55:34;24.63;;;9.88;;
75990;SDS011;64673;52.276;10.560;2022-11-21T05:57:59;26.08;;;9.80;;
75990;SDS011;64673;52.276;10.560;2022-11-21T06:00:25;22.73;;;9.77;;
75990;SDS011;64673;52.276;10.560;2022-11-21T06:02:51;20.75;;;9.13;;
75990;SDS011;64673;52.276;10.560;2022-11-21T06:05:35;19.92;;;8.68;;
75990;SDS011;64673;52.276;10.560;2022-11-21T06:08:00;20.52;;;9.88;;
75990;SDS011;64673;52.276;10.560;2022-11-21T06:10:26;20.65;;;9.57;;
75990;SDS011;64673;52.276;10.560;2022-11-21T06:12:51;20.13;;;9.07;;
75990;SDS011;64673;52.276;10.560;2022-11-21T06:15:16;20.30;;;9.50;;
75990;SDS011;64673;52.276;10.560;2022-11-21T06:17:41;17.48;;;8.57;;
75990;SDS011;64673;52.276;10.560;2022-11-21T06:20:07;20.63;;;9.27;;
75990;SDS011;64673;52.276;10.560;2022-11-21T06:22:33;24.50;;;9.40;;
75990;SDS011;64673;52.276;10.560;2022-11-21T06:24:58;21.65;;;9.00;;
75990;SDS011;64673;52.276;10.560;2022-11-21T06:27:24;23.13;;;9.63;;
75990;SDS011;64673;52.276;10.560;2022-11-21T06:29:49;21.85;;;9.68;;
75990;SDS011;64673;52.276;10.560;2022-11-21T06:32:14;27.92;;;11.02;;
75990;SDS011;64673;52.276;10.560;2022-11-21T06:34:40;27.48;;;11.10;;
75990;SDS011;64673;52.276;10.560;2022-11-21T06:37:05;26.35;;;11.07;;
75990;SDS011;64673;52.276;10.560;2022-11-21T06:39:30;25.05;;;10.10;;
75990;SDS011;64673;52.276;10.560;2022-11-21T06:41:55;20.17;;;9.23;;
75990;SDS011;64673;52.276;10.560;2022-11-21T06:44:21;22.93;;;10.70;;
75990;SDS011;64673;52.276;10.560;2022-11-21T06:46:46;21.70;;;9.55;;
75990;SDS011;64673;52.276;10.560;2022-11-21T06:49:11;23.15;;;8.80;;
75990;SDS011;64673;52.276;10.560;2022-11-21T06:51:37;23.15;;;9.57;;
75990;SDS011;64673;52.276;10.560;2022-11-21T06:54:02;19.35;;;8.20;;
75990;SDS011;64673;52.276;10.560;2022-11-21T06:56:28;22.27;;;10.23;;
75990;SDS011;64673;52.276;10.560;2022-11-21T06:58:55;21.52;;;9.43;;
75990;SDS011;64673;52.276;10.560;2022-11-21T07:01:21;18.08;;;8.60;;
75990;SDS011;64673;52.276;10.560;2022-11-21T07:03:46;25.35;;;9.57;;
75990;SDS011;64673;52.276;10.560;2022-11-21T07:06:12;27.80;;;8.95;;
75990;SDS011;64673;52.276;10.560;2022-11-21T07:08:37;22.45;;;9.18;;
75990;SDS011;64673;52.276;10.560;2022-11-21T07:11:08;21.10;;;8.40;;
75990;SDS011;64673;52.276;10.560;2022-11-21T07:13:35;16.83;;;8.00;;
75990;SDS011;64673;52.276;10.560;2022-11-21T07:16:07;18.30;;;7.72;;
75990;SDS011;64673;52.276;10.560;2022-11-21T07:18:35;17.65;;;8.55;;
75990;SDS011;64673;52.276;10.560;2022-11-21T07:21:01;27.10;;;10.13;;
75990;SDS011;64673;52.276;10.560;2022-11-21T07:23:29;25.40;;;9.23;;
75990;SDS011;64673;52.276;10.560;2022-11-21T07:25:58;20.05;;;8.88;;
75990;SDS011;64673;52.276;10.560;2022-11-21T07:28:26;26.15;;;10.50;;
75990;SDS011;64673;52.276;10.560;2022-11-21T07:30:54;19.92;;;9.15;;
75990;SDS011;64673;52.276;10.560;2022-11-21T07:33:20;22.98;;;9.52;;
75990;SDS011;64673;52.276;10.560;2022-11-21T07:35:46;21.20;;;9.25;;
75990;SDS011;64673;52.276;10.560;2022-11-21T07:38:11;24.33;;;9.52;;
75990;SDS011;64673;52.276;10.560;2022-11-21T07:40:36;22.13;;;9.38;;
75990;SDS011;64673;52.276;10.560;2022-11-21T07:43:03;26.25;;;9.60;;
75990;SDS011;64673;52.276;10.560;2022-11-21T07:45:29;19.52;;;8.32;;
75990;SDS011;64673;52.276;10.560;2022-11-21T07:47:56;24.17;;;10.27;;
75990;SDS011;64673;52.276;10.560;2022-11-21T07:50:25;26.17;;;9.88;;
75990;SDS011;64673;52.276;10.560;2022-11-21T07:52:55;32.45;;;11.63;;
75990;SDS011;64673;52.276;10.560;2022-11-21T07:55:23;34.25;;;13.10;;
75990;SDS011;64673;52.276;10.560;2022-11-21T07:57:55;48.63;;;16.40;;
75990;SDS011;64673;52.276;10.560;2022-11-21T08:00:21;34.17;;;13.55;;
75990;SDS011;64673;52.276;10.560;2022-11-21T08:02:47;36.42;;;13.35;;
75990;SDS011;64673;52.276;10.560;2022-11-21T08:05:12;29.55;;;11.93;;
75990;SDS011;64673;52.276;10.560;2022-11-21T08:07:37;33.45;;;12.45;;
75990;SDS011;64673;52.276;10.560;2022-11-21T08:10:03;28.57;;;12.37;;
75990;SDS011;64673;52.276;10.560;2022-11-21T08:12:30;37.13;;;12.95;;
75990;SDS011;64673;52.276;10.560;2022-11-21T08:14:56;36.95;;;13.38;;
75990;SDS011;64673;52.276;10.560;2022-11-21T08:17:22;30.33;;;13.18;;
75990;SDS011;64673;52.276;10.560;2022-11-21T08:22:15;32.60;;;12.50;;
75990;SDS011;64673;52.276;10.560;2022-11-21T08:24:40;31.52;;;13.18;;
75990;SDS011;64673;52.276;10.560;2022-11-21T08:27:06;32.30;;;13.70;;
75990;SDS011;64673;52.276;10.560;2022-11-21T08:29:31;26.73;;;12.00;;
75990;SDS011;64673;52.276;10.560;2022-11-21T08:31:56;30.17;;;11.63;;
75990;SDS011;64673;52.276;10.560;2022-11-21T08:34:22;32.20;;;13.77;;
75990;SDS011;64673;52.276;10.560;2022-11-21T08:36:47;31.52;;;13.43;;
75990;SDS011;64673;52.276;10.560;2022-11-21T08:39:12;28.33;;;12.52;;
75990;SDS011;64673;52.276;10.560;2022-11-21T08:41:38;28.10;;;12.30;;
75990;SDS011;64673;52.276;10.560;2022-11-21T08:44:22;27.05;;;11.52;;
75990;SDS011;64673;52.276;10.560;2022-11-21T08:46:47;27.40;;;11.55;;
75990;SDS011;64673;52.276;10.560;2022-11-21T08:49:12;29.75;;;12.10;;
75990;SDS011;64673;52.276;10.560;2022-11-21T08:51:38;31.67;;;12.30;;
75990;SDS011;64673;52.276;10.560;2022-11-21T08:54:03;29.17;;;11.48;;
75990;SDS011;64673;52.276;10.560;2022-11-21T08:56:29;27.10;;;11.48;;
75990;SDS011;64673;52.276;10.560;2022-11-21T08:58:54;30.65;;;11.07;;
75990;SDS011;64673;52.276;10.560;2022-11-21T09:01:20;27.67;;;11.32;;
75990;SDS011;64673;52.276;10.560;2022-11-21T09:03:45;35.05;;;11.75;;
75990;SDS011;64673;52.276;10.560;2022-11-21T09:06:11;24.25;;;10.07;;
75990;SDS011;64673;52.276;10.560;2022-11-21T09:08:37;28.90;;;10.75;;
75990;SDS011;64673;52.276;10.560;2022-11-21T09:11:03;26.92;;;10.55;;
75990;SDS011;64673;52.276;10.560;2022-11-21T09:13:29;24.23;;;10.43;;
75990;SDS011;64673;52.276;10.560;2022-11-21T09:15:56;24.50;;;8.75;;
75990;SDS011;64673;52.276;10.560;2022-11-21T09:18:40;25.73;;;9.40;;
75990;SDS011;64673;52.276;10.560;2022-11-21T09:21:06;27.10;;;10.60;;
75990;SDS011;64673;52.276;10.560;2022-11-21T09:23:31;25.60;;;9.32;;
75990;SDS011;64673;52.276;10.560;2022-11-21T09:25:58;22.38;;;9.20;;
75990;SDS011;64673;52.276;10.560;2022-11-21T09:28:24;23.73;;;10.25;;
75990;SDS011;64673;52.276;10.560;2022-11-21T09:30:49;26.45;;;10.32;;
75990;SDS011;64673;52.276;10.560;2022-11-21T09:33:15;28.88;;;10.63;;
75990;SDS011;64673;52.276;10.560;2022-11-21T09:35:40;23.48;;;9.23;;
75990;SDS011;64673;52.276;10.560;2022-11-21T09:38:06;21.75;;;8.98;;
75990;SDS011;64673;52.276;10.560;2022-11-21T09:40:32;23.85;;;9.10;;
75990;SDS011;64673;52.276;10.560;2022-11-21T09:43:47;17.45;;;7.68;;
75990;SDS011;64673;52.276;10.560;2022-11-21T09:46:00;22.48;;;8.48;;
75990;SDS011;64673;52.276;10.560;2022-11-21T09:49:13;20.92;;;8.35;;
75990;SDS011;64673;52.276;10.560;2022-11-21T09:51:29;18.67;;;8.43;;
75990;SDS011;64673;52.276;10.560;2022-11-21T09:53:57;26.45;;;9.05;;
75990;SDS011;64673;52.276;10.560;2022-11-21T09:56:23;19.98;;;8.30;;
75990;SDS011;64673;52.276;10.560;2022-11-21T10:01:42;21.15;;;7.30;;
75990;SDS011;64673;52.276;10.560;2022-11-21T10:04:07;18.67;;;7.38;;
75990;SDS011;64673;52.276;10.560;2022-11-21T10:06:37;15.70;;;6.95;;
75990;SDS011;64673;52.276;10.560;2022-11-21T10:09:36;17.73;;;7.03;;
75990;SDS011;64673;52.276;10.560;2022-11-21T10:12:14;17.42;;;6.97;;
75990;SDS011;64673;52.276;10.560;2022-11-21T10:15:49;17.55;;;7.28;;
75990;SDS011;64673;52.276;10.560;2022-11-21T10:26:30;14.63;;;6.28;;
75990;SDS011;64673;52.276;10.560;2022-11-21T10:29:11;12.70;;;6.13;;
75990;SDS011;64673;52.276;10.560;2022-11-21T10:31:43;16.40;;;7.20;;
75990;SDS011;64673;52.276;10.560;2022-11-21T10:34:11;17.27;;;7.03;;
75990;SDS011;64673;52.276;10.560;2022-11-21T10:36:39;17.55;;;6.97;;
75990;SDS011;64673;52.276;10.560;2022-11-21T10:42:09;16.60;;;6.95;;
75990;SDS011;64673;52.276;10.560;2022-11-21T10:44:38;15.57;;;6.90;;
75990;SDS011;64673;52.276;10.560;2022-11-21T10:47:22;13.38;;;5.30;;
75990;SDS011;64673;52.276;10.560;2022-11-21T10:49:54;13.15;;;6.32;;
75990;SDS011;64673;52.276;10.560;2022-11-21T10:52:23;22.55;;;7.93;;
75990;SDS011;64673;52.276;10.560;2022-11-21T10:57:26;16.40;;;7.35;;
75990;SDS011;64673;52.276;10.560;2022-11-21T10:59:58;15.20;;;6.63;;
75990;SDS011;64673;52.276;10.560;2022-11-21T11:02:25;14.90;;;6.68;;
75990;SDS011;64673;52.276;10.560;2022-11-21T11:08:08;12.90;;;5.07;;
75990;SDS011;64673;52.276;10.560;2022-11-21T11:10:36;12.73;;;5.00;;
75990;SDS011;64673;52.276;10.560;2022-11-21T11:13:10;15.68;;;5.60;;
75990;SDS011;64673;52.276;10.560;2022-11-21T11:18:38;10.63;;;5.53;;
75990;SDS011;64673;52.276;10.560;2022-11-21T11:21:14;11.13;;;5.22;;
75990;SDS011;64673;52.276;10.560;2022-11-21T11:23:45;15.32;;;5.05;;
75990;SDS011;64673;52.276;10.560;2022-11-21T11:28:46;15.27;;;6.15;;
75990;SDS011;64673;52.276;10.560;2022-11-21T11:31:12;13.10;;;5.55;;
75990;SDS011;64673;52.276;10.560;2022-11-21T11:33:38;12.45;;;5.53;;
75990;SDS011;64673;52.276;10.560;2022-11-21T11:38:34;10.18;;;4.90;;
75990;SDS011;64673;52.276;10.560;2022-11-21T11:40:59;11.65;;;4.85;;
75990;SDS011;64673;52.276;10.560;2022-11-21T11:44:23;10.05;;;5.10;;
75990;SDS011;64673;52.276;10.560;2022-11-21T11:47:05;11.15;;;5.03;;
75990;SDS011;64673;52.276;10.560;2022-11-21T11:50:00;9.95;;;5.15;;
75990;SDS011;64673;52.276;10.560;2022-11-21T11:52:57;10.43;;;4.72;;
75990;SDS011;64673;52.276;10.560;2022-11-21T11:55:30;12.55;;;5.00;;
75990;SDS011;64673;52.276;10.560;2022-11-21T11:58:05;13.07;;;5.05;;
75990;SDS011;64673;52.276;10.560;2022-11-21T12:01:40;11.38;;;5.35;;
75990;SDS011;64673;52.276;10.560;2022-11-21T12:03:43;10.35;;;4.25;;
75990;SDS011;64673;52.276;10.560;2022-11-21T12:06:30;8.95;;;4.22;;
75990;SDS011;64673;52.276;10.560;2022-11-21T12:09:03;12.10;;;4.90;;
75990;SDS011;64673;52.276;10.560;2022-11-21T12:17:14;13.77;;;4.57;;
75990;SDS011;64673;52.276;10.560;2022-11-21T12:19:43;10.55;;;4.55;;
75990;SDS011;64673;52.276;10.560;2022-11-21T12:22:10;10.52;;;4.03;;
75990;SDS011;64673;52.276;10.560;2022-11-21T12:24:36;10.18;;;4.18;;
75990;SDS011;64673;52.276;10.560;2022-11-21T12:41:02;6.85;;;2.95;;
75990;SDS011;64673;52.276;10.560;2022-11-21T12:49:49;8.77;;;4.35;;
75990;SDS011;64673;52.276;10.560;2022-11-21T12:52:47;9.93;;;4.00;;
75990;SDS011;64673;52.276;10.560;2022-11-21T12:55:38;7.82;;;3.70;;
75990;SDS011;64673;52.276;10.560;2022-11-21T13:00:47;9.82;;;3.92;;
75990;SDS011;64673;52.276;10.560;2022-11-21T13:06:13;10.73;;;4.18;;
75990;SDS011;64673;52.276;10.560;2022-11-21T13:08:51;14.15;;;4.63;;
75990;SDS011;64673;52.276;10.560;2022-11-21T13:17:03;11.15;;;4.40;;
75990;SDS011;64673;52.276;10.560;2022-11-21T13:19:41;14.02;;;5.20;;
75990;SDS011;64673;52.276;10.560;2022-11-21T13:22:46;10.90;;;4.60;;
75990;SDS011;64673;52.276;10.560;2022-11-21T13:30:46;9.52;;;4.38;;
75990;SDS011;64673;52.276;10.560;2022-11-21T13:38:24;10.15;;;4.80;;
75990;SDS011;64673;52.276;10.560;2022-11-21T13:40:50;10.70;;;4.95;;
75990;SDS011;64673;52.276;10.560;2022-11-21T13:43:34;12.85;;;5.15;;
75990;SDS011;64673;52.276;10.560;2022-11-21T13:46:00;12.40;;;5.35;;
75990;SDS011;64673;52.276;10.560;2022-11-21T14:07:50;10.88;;;4.07;;
75990;SDS011;64673;52.276;10.560;2022-11-21T14:12:57;11.27;;;5.05;;
75990;SDS011;64673;52.276;10.560;2022-11-21T14:15:31;9.85;;;4.47;;
75990;SDS011;64673;52.276;10.560;2022-11-21T14:18:04;11.10;;;4.18;;
75990;SDS011;64673;52.276;10.560;2022-11-21T14:23:15;9.80;;;4.68;;
75990;SDS011;64673;52.276;10.560;2022-11-21T14:25:42;8.52;;;3.67;;
75990;SDS011;64673;52.276;10.560;2022-11-21T14:28:10;12.82;;;5.43;;
75990;SDS011;64673;52.276;10.560;2022-11-21T14:30:40;11.63;;;4.53;;
75990;SDS011;64673;52.276;10.560;2022-11-21T14:43:49;14.93;;;6.35;;
75990;SDS011;64673;52.276;10.560;2022-11-21T14:46:21;13.15;;;6.00;;
75990;SDS011;64673;52.276;10.560;2022-11-21T14:48:47;13.35;;;5.97;;
75990;SDS011;64673;52.276;10.560;2022-11-21T14:51:16;15.48;;;5.88;;
75990;SDS011;64673;52.276;10.560;2022-11-21T14:53:45;12.05;;;5.40;;
75990;SDS011;64673;52.276;10.560;2022-11-21T14:56:26;15.50;;;5.45;;
75990;SDS011;64673;52.276;10.560;2022-11-21T14:58:54;12.27;;;5.13;;
75990;SDS011;64673;52.276;10.560;2022-11-21T15:03:55;14.35;;;5.03;;
75990;SDS011;64673;52.276;10.560;2022-11-21T15:06:25;14.48;;;5.38;;
75990;SDS011;64673;52.276;10.560;2022-11-21T15:08:50;13.93;;;4.85;;
75990;SDS011;64673;52.276;10.560;2022-11-21T15:11:19;12.73;;;4.85;;
75990;SDS011;64673;52.276;10.560;2022-11-21T15:13:49;12.43;;;4.80;;
75990;SDS011;64673;52.276;10.560;2022-11-21T15:16:18;16.15;;;5.90;;
75990;SDS011;64673;52.276;10.560;2022-11-21T15:18:46;14.40;;;5.20;;
75990;SDS011;64673;52.276;10.560;2022-11-21T15:21:12;11.88;;;5.10;;
75990;SDS011;64673;52.276;10.560;2022-11-21T15:23:42;13.80;;;5.10;;
75990;SDS011;64673;52.276;10.560;2022-11-21T15:26:27;12.70;;;5.53;;
75990;SDS011;64673;52.276;10.560;2022-11-21T15:28:55;13.85;;;4.95;;
75990;SDS011;64673;52.276;10.560;2022-11-21T15:31:23;12.70;;;5.10;;
75990;SDS011;64673;52.276;10.560;2022-11-21T15:33:52;14.32;;;5.80;;
75990;SDS011;64673;52.276;10.560;2022-11-21T15:36:22;15.63;;;5.78;;
75990;SDS011;64673;52.276;10.560;2022-11-21T15:38:51;15.10;;;5.22;;
75990;SDS011;64673;52.276;10.560;2022-11-21T15:41:22;15.32;;;5.93;;
75990;SDS011;64673;52.276;10.560;2022-11-21T15:43:51;15.25;;;5.75;;
75990;SDS011;64673;52.276;10.560;2022-11-21T15:46:24;13.82;;;4.97;;
75990;SDS011;64673;52.276;10.560;2022-11-21T15:51:20;14.68;;;5.25;;
75990;SDS011;64673;52.276;10.560;2022-11-21T15:53:48;12.18;;;4.95;;
75990;SDS011;64673;52.276;10.560;2022-11-21T15:56:14;15.00;;;5.55;;
75990;SDS011;64673;52.276;10.560;2022-11-21T15:58:41;10.98;;;4.38;;
75990;SDS011;64673;52.276;10.560;2022-11-21T16:01:11;12.13;;;4.70;;
75990;SDS011;64673;52.276;10.560;2022-11-21T16:03:38;13.20;;;4.82;;
75990;SDS011;64673;52.276;10.560;2022-11-21T16:06:04;13.23;;;5.35;;
75990;SDS011;64673;52.276;10.560;2022-11-21T16:08:29;12.52;;;4.47;;
75990;SDS011;64673;52.276;10.560;2022-11-21T16:10:54;10.32;;;3.90;;
75990;SDS011;64673;52.276;10.560;2022-11-21T16:13:20;10.20;;;3.97;;
75990;SDS011;64673;52.276;10.560;2022-11-21T16:15:45;12.57;;;4.40;;
75990;SDS011;64673;52.276;10.560;2022-11-21T16:18:10;8.93;;;3.65;;
75990;SDS011;64673;52.276;10.560;2022-11-21T16:20:36;9.27;;;3.58;;
75990;SDS011;64673;52.276;10.560;2022-11-21T16:23:01;8.88;;;3.70;;
75990;SDS011;64673;52.276;10.560;2022-11-21T16:25:26;11.90;;;4.07;;
75990;SDS011;64673;52.276;10.560;2022-11-21T16:27:51;6.60;;;2.90;;
75990;SDS011;64673;52.276;10.560;2022-11-21T16:30:17;8.25;;;3.58;;
75990;SDS011;64673;52.276;10.560;2022-11-21T16:32:43;9.15;;;3.83;;
75990;SDS011;64673;52.276;10.560;2022-11-21T16:35:08;8.77;;;3.03;;
75990;SDS011;64673;52.276;10.560;2022-11-21T16:37:33;7.50;;;3.35;;
75990;SDS011;64673;52.276;10.560;2022-11-21T16:39:59;8.05;;;3.78;;